createdAt,value
2022-11-18T00:02:26.913Z,8.90
2022-11-18T00:04:54.878Z,8.93
2022-11-18T00:07:24.192Z,8.95
2022-11-18T00:09:52.028Z,8.95
2022-11-18T00:12:37.346Z,8.92
2022-11-18T00:15:05.890Z,8.88
2022-11-18T00:17:34.110Z,8.88
2022-11-18T00:20:02.019Z,8.85
2022-11-18T00:22:31.263Z,8.81
2022-11-18T00:24:59.312Z,8.80
2022-11-18T00:27:30.857Z,8.82
2022-11-18T00:29:58.796Z,8.80
2022-11-18T00:32:26.641Z,8.74
2022-11-18T00:34:54.506Z,8.77
2022-11-18T00:37:22.334Z,8.75
2022-11-18T00:39:51.508Z,8.75
2022-11-18T00:42:37.093Z,8.77
2022-11-18T00:45:05.386Z,8.81
2022-11-18T00:47:33.191Z,8.83
2022-11-18T00:50:01.108Z,8.83
2022-11-18T00:52:28.909Z,8.77
2022-11-18T00:54:58.159Z,8.75
2022-11-18T00:57:25.987Z,8.68
2022-11-18T00:59:53.796Z,8.68
2022-11-18T01:02:21.624Z,8.61
2022-11-18T01:04:49.475Z,8.49
2022-11-18T01:07:17.416Z,8.43
2022-11-18T01:09:45.404Z,8.43
2022-11-18T01:12:32.276Z,8.45
2022-11-18T01:15:00.440Z,8.53
2022-11-18T01:17:31.499Z,8.60
2022-11-18T01:19:59.862Z,8.63
2022-11-18T01:22:27.682Z,8.59
2022-11-18T01:24:55.588Z,8.61
2022-11-18T01:27:24.791Z,8.64
2022-11-18T01:29:52.673Z,8.55
2022-11-18T01:32:25.393Z,8.56
2022-11-18T01:34:53.669Z,8.58
2022-11-18T01:37:21.468Z,8.58
2022-11-18T01:39:49.304Z,8.59
2022-11-18T01:42:18.906Z,8.53
2022-11-18T01:45:16.631Z,8.38
2022-11-18T01:47:49.425Z,8.39
2022-11-18T01:50:21.167Z,8.26
2022-11-18T01:52:51.833Z,8.23
2022-11-18T01:55:25.244Z,8.28
2022-11-18T01:57:59.430Z,8.23
2022-11-18T02:00:28.789Z,8.29
2022-11-18T02:02:58.243Z,8.45
2022-11-18T02:05:27.260Z,8.57
2022-11-18T02:07:55.149Z,8.71
2022-11-18T02:10:25.055Z,8.66
2022-11-18T02:12:54.574Z,8.79
2022-11-18T02:15:36.423Z,8.84
2022-11-18T02:18:13.883Z,8.88
2022-11-18T02:20:43.735Z,8.85
2022-11-18T02:23:31.940Z,8.87
2022-11-18T02:26:17.446Z,8.89
2022-11-18T02:28:59.817Z,8.95
2022-11-18T02:31:33.880Z,8.99
2022-11-18T02:34:11.178Z,9.01
2022-11-18T02:36:43.834Z,9.02
2022-11-18T02:39:18.721Z,9.00
2022-11-18T02:41:49.059Z,9.01
2022-11-18T02:44:20.613Z,9.01
2022-11-18T02:46:52.494Z,9.01
2022-11-18T02:49:23.603Z,9.00
2022-11-18T02:51:52.888Z,9.01
2022-11-18T02:54:23.750Z,8.98
2022-11-18T02:56:53.536Z,8.88
2022-11-18T02:59:22.859Z,9.00
2022-11-18T03:01:50.887Z,8.97
2022-11-18T03:04:19.615Z,8.96
2022-11-18T03:06:56.645Z,8.78
2022-11-18T03:09:29.241Z,8.88
2022-11-18T03:12:08.498Z,8.90
2022-11-18T03:14:45.912Z,8.90
2022-11-18T03:17:21.751Z,8.89
2022-11-18T03:20:12.014Z,8.85
2022-11-18T03:22:45.507Z,8.89
2022-11-18T03:25:21.208Z,8.89
2022-11-18T03:27:55.365Z,8.92
2022-11-18T03:30:26.180Z,8.95
2022-11-18T03:32:59.649Z,8.99
2022-11-18T03:35:32.280Z,9.01
2022-11-18T03:38:06.493Z,9.01
2022-11-18T03:40:38.158Z,8.99
2022-11-18T03:43:13.418Z,9.03
2022-11-18T03:45:47.962Z,9.03
2022-11-18T03:48:18.601Z,9.01
2022-11-18T03:50:51.982Z,8.95
2022-11-18T03:53:22.025Z,8.99
2022-11-18T03:55:55.738Z,8.95
2022-11-18T03:58:28.908Z,8.92
2022-11-18T04:01:05.157Z,8.93
2022-11-18T04:03:33.243Z,8.94
2022-11-18T04:06:16.722Z,8.91
2022-11-18T04:08:52.203Z,8.91
2022-11-18T04:11:45.149Z,8.90
2022-11-18T04:14:15.001Z,8.99
2022-11-18T04:16:45.551Z,9.00
2022-11-18T04:19:13.380Z,9.01
2022-11-18T04:21:41.353Z,9.00
2022-11-18T04:24:09.868Z,8.96
2022-11-18T04:26:37.724Z,8.94
2022-11-18T04:29:05.564Z,8.91
2022-11-18T04:31:33.469Z,8.84
2022-11-18T04:34:02.683Z,8.86
2022-11-18T04:36:30.553Z,8.77
2022-11-18T04:38:58.381Z,8.68
2022-11-18T04:41:46.165Z,8.64
2022-11-18T04:44:14.022Z,8.63
2022-11-18T04:46:42.816Z,8.63
2022-11-18T04:49:14.014Z,8.59
2022-11-18T04:51:42.934Z,8.48
2022-11-18T04:54:11.678Z,8.54
2022-11-18T04:56:44.274Z,8.54
2022-11-18T04:59:17.728Z,8.56
2022-11-18T05:01:45.790Z,8.56
2022-11-18T05:04:16.665Z,8.55
2022-11-18T05:06:44.886Z,8.54
2022-11-18T05:09:13.272Z,8.52
2022-11-18T05:11:58.887Z,8.48
2022-11-18T05:14:27.003Z,8.48
2022-11-18T05:16:55.390Z,8.43
2022-11-18T05:19:24.831Z,8.45
2022-11-18T05:21:52.948Z,8.48
2022-11-18T05:24:20.892Z,8.50
2022-11-18T05:26:48.786Z,8.55
2022-11-18T05:29:16.913Z,8.59
2022-11-18T05:31:44.831Z,8.62
2022-11-18T05:34:13.176Z,8.59
2022-11-18T05:36:42.585Z,8.63
2022-11-18T05:39:10.721Z,8.62
2022-11-18T05:41:56.039Z,8.61
2022-11-18T05:44:24.006Z,8.47
2022-11-18T05:46:51.847Z,8.39
2022-11-18T05:49:20.127Z,8.25
2022-11-18T05:51:49.528Z,8.14
2022-11-18T05:54:20.031Z,8.04
2022-11-18T05:56:48.006Z,8.02
2022-11-18T05:59:16.770Z,7.96
2022-11-18T06:01:49.301Z,7.99
2022-11-18T06:04:22.828Z,8.06
2022-11-18T06:06:55.519Z,8.11
2022-11-18T06:09:27.716Z,8.07
2022-11-18T06:11:58.237Z,7.96
2022-11-18T06:14:31.130Z,7.95
2022-11-18T06:17:03.921Z,7.90
2022-11-18T06:19:32.935Z,7.88
2022-11-18T06:22:02.276Z,7.87
2022-11-18T06:24:30.301Z,7.85
2022-11-18T06:26:59.778Z,7.90
2022-11-18T06:29:28.927Z,7.91
2022-11-18T06:31:56.957Z,8.03
2022-11-18T06:34:24.773Z,8.11
2022-11-18T06:36:52.584Z,8.21
2022-11-18T06:39:22.467Z,8.31
2022-11-18T06:41:50.262Z,8.41
2022-11-18T06:44:17.167Z,8.46
2022-11-18T06:46:57.276Z,8.41
2022-11-18T06:49:26.293Z,8.37
2022-11-18T06:51:54.501Z,8.36
2022-11-18T06:54:23.756Z,8.29
2022-11-18T06:56:51.745Z,8.30
2022-11-18T06:59:23.674Z,8.40
2022-11-18T07:01:53.248Z,8.49
2022-11-18T07:04:21.692Z,8.52
2022-11-18T07:06:49.707Z,8.58
2022-11-18T07:09:17.982Z,8.63
2022-11-18T07:11:47.498Z,8.60
2022-11-18T07:14:15.374Z,8.62
2022-11-18T07:16:43.550Z,8.63
2022-11-18T07:19:13.744Z,8.65
2022-11-18T07:21:43.347Z,8.70
2022-11-18T07:24:14.750Z,8.67
2022-11-18T07:26:43.229Z,8.54
2022-11-18T07:29:12.490Z,8.71
2022-11-18T07:31:40.861Z,8.75
2022-11-18T07:34:09.018Z,8.75
2022-11-18T07:36:36.835Z,8.82
2022-11-18T07:39:06.195Z,8.89
2022-11-18T07:41:35.131Z,8.95
2022-11-18T07:44:04.220Z,9.01
2022-11-18T07:46:35.109Z,8.97
2022-11-18T07:49:04.500Z,9.00
2022-11-18T07:51:34.447Z,9.04
2022-11-18T07:54:02.975Z,9.05
2022-11-18T07:56:30.792Z,9.06
2022-11-18T07:58:58.640Z,9.07
2022-11-18T08:01:29.132Z,9.05
2022-11-18T08:03:58.889Z,8.99
2022-11-18T08:06:26.780Z,9.01
2022-11-18T08:08:54.575Z,9.07
2022-11-18T08:11:23.145Z,9.11
2022-11-18T08:13:51.261Z,9.15
2022-11-18T08:16:22.355Z,9.18
2022-11-18T08:18:50.720Z,9.23
2022-11-18T08:21:22.165Z,9.29
2022-11-18T08:23:54.639Z,9.34
2022-11-18T08:26:22.918Z,9.35
2022-11-18T08:28:51.120Z,9.36
2022-11-18T08:31:20.967Z,9.33
2022-11-18T08:33:49.064Z,9.30
2022-11-18T08:36:18.741Z,9.32
2022-11-18T08:38:48.098Z,9.33
2022-11-18T08:41:17.746Z,9.43
2022-11-18T08:43:45.548Z,9.48
2022-11-18T08:46:13.393Z,9.56
2022-11-18T08:48:41.185Z,9.56
2022-11-18T08:51:10.543Z,9.60
2022-11-18T08:53:38.436Z,9.65
2022-11-18T08:56:08.249Z,9.72
2022-11-18T08:58:36.150Z,9.86
2022-11-18T09:01:06.619Z,9.98
2022-11-18T09:03:34.704Z,10.05
2022-11-18T09:06:07.433Z,10.13
2022-11-18T09:08:35.264Z,10.18
2022-11-18T09:11:08.746Z,10.21
2022-11-18T09:14:14.416Z,10.14
2022-11-18T09:16:28.187Z,10.19
2022-11-18T09:18:57.957Z,10.21
2022-11-18T09:21:27.182Z,10.16
2022-11-18T09:23:55.624Z,10.15
2022-11-18T09:26:24.977Z,10.12
2022-11-18T09:28:55.126Z,10.01
2022-11-18T09:31:23.067Z,9.97
2022-11-18T09:33:51.083Z,9.92
2022-11-18T09:36:20.898Z,10.00
2022-11-18T09:38:52.960Z,10.02
2022-11-18T09:41:45.137Z,10.05
2022-11-18T09:44:23.409Z,10.16
2022-11-18T09:47:04.007Z,10.28
2022-11-18T09:49:34.348Z,10.38
2022-11-18T09:52:05.859Z,10.47
2022-11-18T09:54:36.852Z,10.50
2022-11-18T09:57:14.677Z,10.48
2022-11-18T09:59:43.409Z,10.41
2022-11-18T10:02:40.486Z,10.37
2022-11-18T10:05:16.966Z,10.32
2022-11-18T10:07:50.957Z,10.18
2022-11-18T10:10:24.920Z,10.13
2022-11-18T10:13:00.859Z,10.03
2022-11-18T10:15:37.252Z,9.98
2022-11-18T10:18:44.943Z,9.97
2022-11-18T10:21:20.062Z,10.04
2022-11-18T10:23:54.216Z,10.16
2022-11-18T10:26:34.866Z,10.22
2022-11-18T10:29:07.590Z,10.22
2022-11-18T10:31:37.945Z,10.21
2022-11-18T10:34:06.088Z,10.24
2022-11-18T10:36:35.418Z,10.25
2022-11-18T10:39:14.858Z,10.23
2022-11-18T10:41:46.679Z,10.17
2022-11-18T10:44:32.276Z,10.11
2022-11-18T10:47:26.130Z,10.03
2022-11-18T10:49:55.518Z,9.98
2022-11-18T10:52:23.835Z,9.88
2022-11-18T10:55:19.277Z,9.78
2022-11-18T10:57:48.134Z,9.72
2022-11-18T11:00:41.322Z,9.61
2022-11-18T11:03:32.679Z,9.48
2022-11-18T11:06:24.510Z,9.46
2022-11-18T11:08:53.709Z,9.55
2022-11-18T11:11:28.751Z,9.66
2022-11-18T11:14:03.053Z,9.73
2022-11-18T11:16:34.913Z,9.77
2022-11-18T11:19:05.189Z,9.75
2022-11-18T11:21:33.083Z,9.75
2022-11-18T11:24:00.957Z,9.75
2022-11-18T11:29:38.427Z,9.77
2022-11-18T11:32:17.172Z,9.78
2022-11-18T11:34:52.822Z,9.73
2022-11-18T11:37:30.155Z,9.54
2022-11-18T11:40:11.664Z,9.51
2022-11-18T11:42:49.635Z,9.38
2022-11-18T11:45:25.407Z,9.37
2022-11-18T11:48:14.846Z,9.43
2022-11-18T11:51:04.217Z,9.45
2022-11-18T11:54:02.616Z,9.48
2022-11-18T11:56:35.454Z,9.45
2022-11-18T11:59:25.615Z,9.57
2022-11-18T12:02:00.671Z,9.57
2022-11-18T12:04:44.006Z,9.59
2022-11-18T12:07:19.557Z,9.46
2022-11-18T12:10:10.504Z,9.34
2022-11-18T12:12:47.071Z,9.12
2022-11-18T12:15:31.663Z,8.91
2022-11-18T12:18:12.111Z,8.90
2022-11-18T12:20:45.810Z,8.77
2022-11-18T12:23:16.283Z,8.63
2022-11-18T12:26:04.222Z,8.62
2022-11-18T12:28:35.586Z,8.63
2022-11-18T12:31:33.323Z,8.56
2022-11-18T12:34:04.807Z,8.53
2022-11-18T12:36:36.283Z,8.56
2022-11-18T12:39:53.171Z,8.57
2022-11-18T12:43:10.126Z,8.62
2022-11-18T12:45:48.832Z,8.58
2022-11-18T12:48:32.578Z,8.51
2022-11-18T12:51:02.391Z,8.52
2022-11-18T12:53:38.784Z,8.50
2022-11-18T12:56:22.676Z,8.54
2022-11-18T12:58:52.088Z,8.59
2022-11-18T13:01:22.645Z,8.59
2022-11-18T13:03:51.470Z,8.58
2022-11-18T13:06:26.853Z,8.59
2022-11-18T13:08:59.624Z,8.57
2022-11-18T13:11:48.018Z,8.61
2022-11-18T13:14:36.102Z,8.55
2022-11-18T13:17:21.903Z,8.49
2022-11-18T13:19:57.707Z,8.52
2022-11-18T13:22:43.366Z,8.48
2022-11-18T13:25:26.166Z,8.37
2022-11-18T13:28:03.409Z,8.39
2022-11-18T13:30:34.760Z,8.37
2022-11-18T13:33:02.671Z,8.35
2022-11-18T13:35:30.572Z,8.35
2022-11-18T13:38:00.125Z,8.26
2022-11-18T13:40:31.477Z,8.24
2022-11-18T13:42:59.384Z,8.23
2022-11-18T13:45:29.358Z,8.21
2022-11-18T13:48:02.661Z,8.23
2022-11-18T13:50:34.256Z,8.21
2022-11-18T13:53:10.613Z,8.22
2022-11-18T13:55:46.572Z,8.24
2022-11-18T13:58:30.370Z,8.14
2022-11-18T14:01:00.658Z,8.11
2022-11-18T14:03:33.030Z,8.09
2022-11-18T14:06:02.396Z,8.06
2022-11-18T14:08:32.748Z,8.05
2022-11-18T14:11:02.570Z,7.99
2022-11-18T14:13:32.301Z,7.98
2022-11-18T14:16:02.226Z,7.95
2022-11-18T14:18:33.578Z,7.96
2022-11-18T14:21:02.996Z,7.91
2022-11-18T14:23:34.001Z,7.95
2022-11-18T14:26:06.015Z,7.92
2022-11-18T14:28:36.860Z,7.83
2022-11-18T14:31:08.391Z,7.84
2022-11-18T14:33:37.316Z,7.79
2022-11-18T14:36:12.789Z,7.75
2022-11-18T14:41:50.550Z,7.73
2022-11-18T14:44:19.220Z,7.64
2022-11-18T14:46:49.439Z,7.77
2022-11-18T14:49:19.466Z,7.69
2022-11-18T14:51:48.251Z,7.61
2022-11-18T14:54:25.111Z,7.63
2022-11-18T14:56:58.084Z,7.57
2022-11-18T14:59:26.022Z,7.62
2022-11-18T15:01:53.940Z,7.53
2022-11-18T15:04:22.088Z,7.51
2022-11-18T15:06:50.359Z,7.46
2022-11-18T15:09:18.345Z,7.43
2022-11-18T15:11:46.147Z,7.44
2022-11-18T15:14:15.572Z,7.41
2022-11-18T15:16:43.637Z,7.35
2022-11-18T15:19:15.818Z,7.34
2022-11-18T15:21:43.710Z,7.28
2022-11-18T15:24:11.577Z,7.27
2022-11-18T15:26:42.053Z,7.26
2022-11-18T15:29:17.778Z,7.22
2022-11-18T15:31:45.740Z,7.22
2022-11-18T15:34:14.221Z,7.20
2022-11-18T15:36:42.030Z,7.20
2022-11-18T15:39:11.206Z,7.17
2022-11-18T15:41:40.871Z,7.06
2022-11-18T15:44:11.600Z,7.10
2022-11-18T15:46:41.028Z,7.16
2022-11-18T15:49:14.090Z,7.10
2022-11-18T15:51:42.178Z,7.07
2022-11-18T15:54:10.051Z,7.08
2022-11-18T15:56:39.840Z,7.02
2022-11-18T15:59:10.391Z,7.03
2022-11-18T16:01:41.139Z,6.97
2022-11-18T16:04:10.917Z,6.89
2022-11-18T16:06:39.618Z,6.90
2022-11-18T16:09:08.313Z,6.90
2022-11-18T16:11:53.872Z,6.86
2022-11-18T16:14:23.355Z,6.82
2022-11-18T16:16:54.649Z,6.82
2022-11-18T16:19:24.824Z,6.80
2022-11-18T16:21:54.324Z,6.78
2022-11-18T16:24:23.817Z,6.79
2022-11-18T16:26:51.699Z,6.77
2022-11-18T16:29:20.753Z,6.74
2022-11-18T16:31:52.377Z,6.75
2022-11-18T16:34:23.508Z,6.72
2022-11-18T16:36:53.485Z,6.75
2022-11-18T16:39:25.103Z,6.70
2022-11-18T16:41:54.582Z,6.62
2022-11-18T16:44:23.213Z,6.50
2022-11-18T16:46:52.937Z,6.50
2022-11-18T16:49:24.247Z,6.42
2022-11-18T16:51:53.848Z,6.58
2022-11-18T16:54:23.798Z,6.44
2022-11-18T16:56:53.171Z,6.58
2022-11-18T16:59:22.583Z,6.57
2022-11-18T17:01:51.414Z,6.54
2022-11-18T17:04:20.815Z,6.53
2022-11-18T17:06:50.036Z,6.51
2022-11-18T17:09:19.754Z,6.49
2022-11-18T17:11:48.510Z,6.46
2022-11-18T17:14:16.497Z,6.44
2022-11-18T17:16:44.657Z,6.47
2022-11-18T17:19:15.100Z,6.46
2022-11-18T17:21:43.824Z,6.45
2022-11-18T17:24:17.562Z,6.44
2022-11-18T17:26:46.462Z,6.36
2022-11-18T17:29:15.166Z,6.34
2022-11-18T17:31:43.227Z,6.21
2022-11-18T17:34:11.971Z,6.24
2022-11-18T17:36:40.491Z,5.99
2022-11-18T17:39:10.719Z,6.01
2022-11-18T17:41:58.008Z,6.02
2022-11-18T17:44:26.303Z,5.92
2022-11-18T17:46:54.211Z,5.93
2022-11-18T17:49:22.381Z,5.89
2022-11-18T17:51:51.580Z,5.83
2022-11-18T17:54:20.074Z,5.80
2022-11-18T17:56:49.958Z,5.78
2022-11-18T17:59:18.340Z,5.73
2022-11-18T18:01:46.794Z,5.75
2022-11-18T18:04:20.359Z,5.71
2022-11-18T18:06:51.100Z,5.63
2022-11-18T18:09:20.750Z,5.54
2022-11-18T18:11:51.198Z,5.63
2022-11-18T18:14:19.159Z,5.60
2022-11-18T18:16:48.842Z,5.55
2022-11-18T18:19:19.153Z,5.50
2022-11-18T18:21:47.092Z,5.40
2022-11-18T18:24:17.237Z,5.49
2022-11-18T18:26:45.406Z,5.51
2022-11-18T18:29:14.902Z,5.47
2022-11-18T18:31:42.889Z,5.47
2022-11-18T18:34:10.804Z,5.40
2022-11-18T18:36:39.082Z,5.40
2022-11-18T18:39:07.021Z,5.43
2022-11-18T18:41:34.912Z,5.35
2022-11-18T18:44:02.798Z,5.31
2022-11-18T18:46:34.218Z,5.29
2022-11-18T18:49:04.709Z,5.25
2022-11-18T18:51:36.390Z,5.27
2022-11-18T18:54:05.314Z,5.23
2022-11-18T18:56:33.772Z,5.15
2022-11-18T18:59:01.915Z,5.05
2022-11-18T19:01:29.852Z,4.99
2022-11-18T19:04:01.314Z,4.95
2022-11-18T19:09:19.152Z,4.91
2022-11-18T19:12:04.518Z,4.89
2022-11-18T19:14:35.013Z,4.87
2022-11-18T19:17:09.500Z,4.86
2022-11-18T19:19:57.886Z,4.83
2022-11-18T19:22:26.399Z,4.82
2022-11-18T19:24:54.690Z,4.79
2022-11-18T19:27:23.206Z,4.73
2022-11-18T19:29:51.075Z,4.76
2022-11-18T19:32:19.052Z,4.76
2022-11-18T19:34:48.484Z,4.73
2022-11-18T19:37:16.352Z,4.71
2022-11-18T19:39:44.241Z,4.66
2022-11-18T19:42:12.171Z,4.63
2022-11-18T19:44:40.585Z,4.46
2022-11-18T19:47:08.405Z,4.57
2022-11-18T19:49:36.407Z,4.56
2022-11-18T19:52:05.538Z,4.58
2022-11-18T19:54:33.379Z,4.58
2022-11-18T19:57:03.679Z,4.53
2022-11-18T19:59:31.566Z,4.51
2022-11-18T20:01:59.427Z,4.55
2022-11-18T20:04:27.462Z,4.55
2022-11-18T20:06:55.287Z,4.47
2022-11-18T20:09:25.397Z,4.41
2022-11-18T20:11:53.487Z,4.38
2022-11-18T20:14:21.543Z,4.38
2022-11-18T20:16:51.524Z,4.38
2022-11-18T20:19:19.602Z,4.36
2022-11-18T20:21:48.799Z,4.30
2022-11-18T20:24:18.553Z,4.23
2022-11-18T20:26:48.595Z,4.18
2022-11-18T20:29:16.740Z,4.14
2022-11-18T20:31:44.973Z,4.20
2022-11-18T20:34:14.639Z,4.15
2022-11-18T20:36:42.818Z,4.21
2022-11-18T20:39:14.587Z,4.12
2022-11-18T20:41:42.545Z,4.10
2022-11-18T20:44:11.698Z,4.03
2022-11-18T20:46:39.523Z,3.99
2022-11-18T20:49:07.320Z,3.97
2022-11-18T20:51:35.144Z,3.95
2022-11-18T20:54:07.621Z,3.97
2022-11-18T20:56:35.403Z,3.96
2022-11-18T20:59:03.290Z,4.01
2022-11-18T21:01:33.650Z,3.98
2022-11-18T21:04:03.530Z,4.04
2022-11-18T21:06:32.988Z,4.00
2022-11-18T21:09:02.521Z,3.98
2022-11-18T21:11:31.112Z,4.03
2022-11-18T21:14:22.851Z,4.05
2022-11-18T21:16:55.157Z,4.03
2022-11-18T21:19:23.540Z,4.01
2022-11-18T21:21:52.410Z,3.99
2022-11-18T21:24:22.906Z,3.98
2022-11-18T21:26:54.522Z,3.92
2022-11-18T21:29:23.772Z,3.92
2022-11-18T21:31:53.848Z,3.92
2022-11-18T21:34:22.526Z,3.91
2022-11-18T21:36:54.591Z,3.79
2022-11-18T21:39:23.904Z,3.87
2022-11-18T21:41:55.741Z,3.83
2022-11-18T21:44:24.416Z,3.80
2022-11-18T21:46:53.589Z,3.73
2022-11-18T21:49:22.258Z,3.68
2022-11-18T21:51:50.466Z,3.64
2022-11-18T21:54:18.640Z,3.57
2022-11-18T21:56:46.568Z,3.60
2022-11-18T21:59:14.388Z,3.53
2022-11-18T22:01:42.150Z,3.53
2022-11-18T22:04:31.624Z,3.45
2022-11-18T22:06:59.470Z,3.40
2022-11-18T22:09:31.460Z,3.34
2022-11-18T22:12:02.616Z,3.29
2022-11-18T22:14:30.448Z,3.28
2022-11-18T22:16:58.270Z,3.24
2022-11-18T22:19:27.421Z,3.24
2022-11-18T22:21:55.186Z,3.23
2022-11-18T22:24:23.496Z,3.22
2022-11-18T22:26:51.278Z,3.18
2022-11-18T22:29:19.336Z,3.10
2022-11-18T22:31:47.354Z,3.09
2022-11-18T22:34:15.159Z,3.09
2022-11-18T22:36:44.515Z,3.08
2022-11-18T22:39:12.419Z,3.01
2022-11-18T22:41:57.895Z,3.05
2022-11-18T22:44:25.922Z,3.02
2022-11-18T22:46:53.996Z,2.97
2022-11-18T22:49:22.066Z,2.98
2022-11-18T22:51:51.556Z,2.97
2022-11-18T22:57:07.888Z,2.92
2022-11-18T22:59:35.698Z,2.93
2022-11-18T23:02:03.556Z,2.73
2022-11-18T23:04:31.371Z,2.89
2022-11-18T23:07:00.569Z,2.90
2022-11-18T23:09:28.494Z,2.87
2022-11-18T23:12:14.039Z,2.78
2022-11-18T23:14:41.881Z,2.79
2022-11-18T23:17:09.735Z,2.77
2022-11-18T23:19:41.971Z,2.73
2022-11-18T23:22:11.217Z,2.79
2022-11-18T23:24:39.034Z,2.82
2022-11-18T23:27:07.062Z,2.75
2022-11-18T23:29:34.927Z,2.84
2022-11-18T23:32:02.806Z,2.85
2022-11-18T23:34:30.591Z,2.83
2022-11-18T23:36:58.406Z,2.80
2022-11-18T23:39:27.643Z,2.77
2022-11-18T23:41:55.476Z,2.75
2022-11-18T23:44:43.214Z,2.71
2022-11-18T23:47:11.070Z,2.69
2022-11-18T23:49:38.906Z,2.66
2022-11-18T23:52:06.832Z,2.61
2022-11-18T23:54:35.988Z,2.57
2022-11-18T23:57:05.594Z,2.52
2022-11-18T23:59:34.083Z,2.50
